sensor_id;sensor_type;location;lat;lon;timestamp;P1;durP1;ratioP1;P2;durP2;ratioP2
75261;SDS011;63859;51.064;4.580;2022-11-20T00:01:08;28.37;;;17.57;;
75261;SDS011;63859;51.064;4.580;2022-11-20T00:03:37;27.87;;;16.53;;
75261;SDS011;63859;51.064;4.580;2022-11-20T00:06:04;29.97;;;17.00;;
75261;SDS011;63859;51.064;4.580;2022-11-20T00:08:32;31.53;;;17.50;;
75261;SDS011;63859;51.064;4.580;2022-11-20T00:11:02;24.60;;;15.20;;
75261;SDS011;63859;51.064;4.580;2022-11-20T00:13:29;31.33;;;17.77;;
75261;SDS011;63859;51.064;4.580;2022-11-20T00:15:58;36.17;;;17.10;;
75261;SDS011;63859;51.064;4.580;2022-11-20T00:18:25;29.83;;;16.63;;
75261;SDS011;63859;51.064;4.580;2022-11-20T00:20:51;28.40;;;16.90;;
75261;SDS011;63859;51.064;4.580;2022-11-20T00:23:16;29.73;;;16.43;;
75261;SDS011;63859;51.064;4.580;2022-11-20T00:25:42;28.43;;;16.40;;
75261;SDS011;63859;51.064;4.580;2022-11-20T00:28:07;26.83;;;15.73;;
75261;SDS011;63859;51.064;4.580;2022-11-20T00:30:33;28.80;;;16.73;;
75261;SDS011;63859;51.064;4.580;2022-11-20T00:32:59;29.57;;;15.70;;
75261;SDS011;63859;51.064;4.580;2022-11-20T00:35:24;29.47;;;16.07;;
75261;SDS011;63859;51.064;4.580;2022-11-20T00:37:50;27.50;;;16.10;;
75261;SDS011;63859;51.064;4.580;2022-11-20T00:40:15;31.77;;;15.83;;
75261;SDS011;63859;51.064;4.580;2022-11-20T00:42:41;31.40;;;16.90;;
75261;SDS011;63859;51.064;4.580;2022-11-20T00:45:07;28.17;;;15.47;;
75261;SDS011;63859;51.064;4.580;2022-11-20T00:47:33;26.37;;;15.57;;
75261;SDS011;63859;51.064;4.580;2022-11-20T00:49:58;26.00;;;15.70;;
75261;SDS011;63859;51.064;4.580;2022-11-20T00:52:24;29.07;;;15.93;;
75261;SDS011;63859;51.064;4.580;2022-11-20T00:54:49;26.97;;;15.80;;
75261;SDS011;63859;51.064;4.580;2022-11-20T00:57:15;28.23;;;16.33;;
75261;SDS011;63859;51.064;4.580;2022-11-20T00:59:40;28.10;;;15.90;;
75261;SDS011;63859;51.064;4.580;2022-11-20T01:02:06;27.70;;;15.93;;
75261;SDS011;63859;51.064;4.580;2022-11-20T01:04:31;27.80;;;15.80;;
75261;SDS011;63859;51.064;4.580;2022-11-20T01:06:57;29.43;;;17.13;;
75261;SDS011;63859;51.064;4.580;2022-11-20T01:09:23;27.70;;;16.43;;
75261;SDS011;63859;51.064;4.580;2022-11-20T01:11:48;27.30;;;16.50;;
75261;SDS011;63859;51.064;4.580;2022-11-20T01:14:18;28.73;;;16.40;;
75261;SDS011;63859;51.064;4.580;2022-11-20T01:16:48;27.50;;;16.80;;
75261;SDS011;63859;51.064;4.580;2022-11-20T01:19:16;26.00;;;16.03;;
75261;SDS011;63859;51.064;4.580;2022-11-20T01:21:44;29.20;;;16.67;;
75261;SDS011;63859;51.064;4.580;2022-11-20T01:24:12;29.03;;;16.57;;
75261;SDS011;63859;51.064;4.580;2022-11-20T01:26:40;27.23;;;15.97;;
75261;SDS011;63859;51.064;4.580;2022-11-20T01:29:08;28.07;;;16.57;;
75261;SDS011;63859;51.064;4.580;2022-11-20T01:31:56;26.73;;;15.83;;
75261;SDS011;63859;51.064;4.580;2022-11-20T01:34:22;27.43;;;16.30;;
75261;SDS011;63859;51.064;4.580;2022-11-20T01:36:48;28.23;;;16.80;;
75261;SDS011;63859;51.064;4.580;2022-11-20T01:39:17;28.93;;;17.13;;
75261;SDS011;63859;51.064;4.580;2022-11-20T01:41:47;28.67;;;16.87;;
75261;SDS011;63859;51.064;4.580;2022-11-20T01:44:47;31.33;;;16.70;;
75261;SDS011;63859;51.064;4.580;2022-11-20T01:47:14;34.30;;;16.47;;
75261;SDS011;63859;51.064;4.580;2022-11-20T01:49:52;29.00;;;17.57;;
75261;SDS011;63859;51.064;4.580;2022-11-20T01:52:41;31.97;;;16.93;;
75261;SDS011;63859;51.064;4.580;2022-11-20T01:55:40;25.93;;;15.73;;
75261;SDS011;63859;51.064;4.580;2022-11-20T01:58:10;27.80;;;16.57;;
75261;SDS011;63859;51.064;4.580;2022-11-20T02:00:37;28.07;;;16.80;;
75261;SDS011;63859;51.064;4.580;2022-11-20T02:03:12;29.73;;;16.80;;
75261;SDS011;63859;51.064;4.580;2022-11-20T02:05:43;33.23;;;18.10;;
75261;SDS011;63859;51.064;4.580;2022-11-20T02:08:28;29.97;;;17.53;;
75261;SDS011;63859;51.064;4.580;2022-11-20T02:10:55;31.07;;;17.10;;
75261;SDS011;63859;51.064;4.580;2022-11-20T02:13:20;29.93;;;16.70;;
75261;SDS011;63859;51.064;4.580;2022-11-20T02:16:04;32.83;;;17.97;;
75261;SDS011;63859;51.064;4.580;2022-11-20T02:18:38;33.30;;;18.40;;
75261;SDS011;63859;51.064;4.580;2022-11-20T02:24:00;30.93;;;18.20;;
75261;SDS011;63859;51.064;4.580;2022-11-20T02:26:31;33.13;;;17.87;;
75261;SDS011;63859;51.064;4.580;2022-11-20T02:29:03;34.37;;;18.13;;
75261;SDS011;63859;51.064;4.580;2022-11-20T02:31:28;38.60;;;18.20;;
75261;SDS011;63859;51.064;4.580;2022-11-20T02:33:59;36.13;;;18.83;;
75261;SDS011;63859;51.064;4.580;2022-11-20T02:36:26;34.13;;;17.50;;
75261;SDS011;63859;51.064;4.580;2022-11-20T02:38:53;36.70;;;17.97;;
75261;SDS011;63859;51.064;4.580;2022-11-20T02:41:18;34.80;;;19.30;;
75261;SDS011;63859;51.064;4.580;2022-11-20T02:43:44;36.77;;;18.83;;
75261;SDS011;63859;51.064;4.580;2022-11-20T02:46:10;40.40;;;20.57;;
75261;SDS011;63859;51.064;4.580;2022-11-20T02:48:35;37.27;;;19.23;;
75261;SDS011;63859;51.064;4.580;2022-11-20T02:51:01;38.07;;;20.10;;
75261;SDS011;63859;51.064;4.580;2022-11-20T02:53:27;36.83;;;20.00;;
75261;SDS011;63859;51.064;4.580;2022-11-20T02:55:53;42.93;;;20.43;;
75261;SDS011;63859;51.064;4.580;2022-11-20T02:58:19;41.67;;;20.50;;
75261;SDS011;63859;51.064;4.580;2022-11-20T03:00:44;39.13;;;19.97;;
75261;SDS011;63859;51.064;4.580;2022-11-20T03:03:10;43.13;;;20.97;;
75261;SDS011;63859;51.064;4.580;2022-11-20T03:05:35;42.67;;;20.97;;
75261;SDS011;63859;51.064;4.580;2022-11-20T03:08:01;42.87;;;20.57;;
75261;SDS011;63859;51.064;4.580;2022-11-20T03:10:27;45.50;;;20.53;;
75261;SDS011;63859;51.064;4.580;2022-11-20T03:12:53;40.63;;;20.37;;
75261;SDS011;63859;51.064;4.580;2022-11-20T03:15:20;42.03;;;20.63;;
75261;SDS011;63859;51.064;4.580;2022-11-20T03:17:47;43.67;;;20.90;;
75261;SDS011;63859;51.064;4.580;2022-11-20T03:20:12;43.97;;;20.83;;
75261;SDS011;63859;51.064;4.580;2022-11-20T03:22:38;42.73;;;20.70;;
75261;SDS011;63859;51.064;4.580;2022-11-20T03:25:03;36.83;;;19.23;;
75261;SDS011;63859;51.064;4.580;2022-11-20T03:27:35;38.97;;;20.60;;
75261;SDS011;63859;51.064;4.580;2022-11-20T03:30:01;38.83;;;20.30;;
75261;SDS011;63859;51.064;4.580;2022-11-20T03:32:27;42.27;;;21.73;;
75261;SDS011;63859;51.064;4.580;2022-11-20T03:34:52;39.13;;;20.07;;
75261;SDS011;63859;51.064;4.580;2022-11-20T03:37:18;41.37;;;20.63;;
75261;SDS011;63859;51.064;4.580;2022-11-20T03:39:43;42.67;;;20.80;;
75261;SDS011;63859;51.064;4.580;2022-11-20T03:42:09;50.23;;;23.40;;
75261;SDS011;63859;51.064;4.580;2022-11-20T03:44:55;51.30;;;22.90;;
75261;SDS011;63859;51.064;4.580;2022-11-20T03:47:20;52.60;;;24.20;;
75261;SDS011;63859;51.064;4.580;2022-11-20T03:49:46;58.73;;;26.13;;
75261;SDS011;63859;51.064;4.580;2022-11-20T03:52:11;54.33;;;25.30;;
75261;SDS011;63859;51.064;4.580;2022-11-20T03:54:37;57.50;;;27.27;;
75261;SDS011;63859;51.064;4.580;2022-11-20T03:57:03;53.63;;;25.30;;
75261;SDS011;63859;51.064;4.580;2022-11-20T03:59:28;59.27;;;25.87;;
75261;SDS011;63859;51.064;4.580;2022-11-20T04:01:54;65.90;;;26.90;;
75261;SDS011;63859;51.064;4.580;2022-11-20T04:04:19;52.63;;;25.63;;
75261;SDS011;63859;51.064;4.580;2022-11-20T04:06:45;57.03;;;26.37;;
75261;SDS011;63859;51.064;4.580;2022-11-20T04:09:11;57.73;;;25.33;;
75261;SDS011;63859;51.064;4.580;2022-11-20T04:11:36;66.30;;;28.90;;
75261;SDS011;63859;51.064;4.580;2022-11-20T04:14:05;63.67;;;28.53;;
75261;SDS011;63859;51.064;4.580;2022-11-20T04:16:32;65.53;;;27.90;;
75261;SDS011;63859;51.064;4.580;2022-11-20T04:19:01;58.53;;;28.60;;
75261;SDS011;63859;51.064;4.580;2022-11-20T04:21:29;61.03;;;28.03;;
75261;SDS011;63859;51.064;4.580;2022-11-20T04:23:55;57.37;;;26.97;;
75261;SDS011;63859;51.064;4.580;2022-11-20T04:26:22;61.40;;;27.13;;
75261;SDS011;63859;51.064;4.580;2022-11-20T04:28:49;62.97;;;28.33;;
75261;SDS011;63859;51.064;4.580;2022-11-20T04:31:16;60.40;;;27.90;;
75261;SDS011;63859;51.064;4.580;2022-11-20T04:33:43;62.20;;;28.27;;
75261;SDS011;63859;51.064;4.580;2022-11-20T04:36:13;71.47;;;29.43;;
75261;SDS011;63859;51.064;4.580;2022-11-20T04:38:41;60.93;;;28.40;;
75261;SDS011;63859;51.064;4.580;2022-11-20T04:41:09;58.77;;;27.57;;
75261;SDS011;63859;51.064;4.580;2022-11-20T04:43:50;58.70;;;26.70;;
75261;SDS011;63859;51.064;4.580;2022-11-20T04:46:18;61.33;;;27.37;;
75261;SDS011;63859;51.064;4.580;2022-11-20T04:48:45;62.80;;;27.40;;
75261;SDS011;63859;51.064;4.580;2022-11-20T04:51:12;62.13;;;28.20;;
75261;SDS011;63859;51.064;4.580;2022-11-20T04:53:38;60.93;;;27.70;;
75261;SDS011;63859;51.064;4.580;2022-11-20T04:56:05;58.47;;;26.43;;
75261;SDS011;63859;51.064;4.580;2022-11-20T04:58:32;63.53;;;27.67;;
75261;SDS011;63859;51.064;4.580;2022-11-20T05:01:02;62.23;;;27.37;;
75261;SDS011;63859;51.064;4.580;2022-11-20T05:03:36;57.30;;;26.03;;
75261;SDS011;63859;51.064;4.580;2022-11-20T05:06:02;57.63;;;26.83;;
75261;SDS011;63859;51.064;4.580;2022-11-20T05:08:30;55.57;;;26.73;;
75261;SDS011;63859;51.064;4.580;2022-11-20T05:11:03;55.47;;;25.97;;
75261;SDS011;63859;51.064;4.580;2022-11-20T05:13:30;58.23;;;25.93;;
75261;SDS011;63859;51.064;4.580;2022-11-20T05:16:00;59.53;;;27.53;;
75261;SDS011;63859;51.064;4.580;2022-11-20T05:18:30;55.60;;;27.47;;
75261;SDS011;63859;51.064;4.580;2022-11-20T05:20:59;64.43;;;26.83;;
75261;SDS011;63859;51.064;4.580;2022-11-20T05:23:25;60.77;;;26.87;;
75261;SDS011;63859;51.064;4.580;2022-11-20T05:25:54;56.03;;;26.87;;
75261;SDS011;63859;51.064;4.580;2022-11-20T05:28:20;59.47;;;27.27;;
75261;SDS011;63859;51.064;4.580;2022-11-20T05:30:47;53.27;;;26.53;;
75261;SDS011;63859;51.064;4.580;2022-11-20T05:33:13;59.53;;;27.20;;
75261;SDS011;63859;51.064;4.580;2022-11-20T05:35:38;74.93;;;29.50;;
75261;SDS011;63859;51.064;4.580;2022-11-20T05:38:04;51.57;;;25.87;;
75261;SDS011;63859;51.064;4.580;2022-11-20T05:40:29;57.70;;;25.90;;
75261;SDS011;63859;51.064;4.580;2022-11-20T05:42:55;57.30;;;27.27;;
75261;SDS011;63859;51.064;4.580;2022-11-20T05:45:21;56.30;;;26.40;;
75261;SDS011;63859;51.064;4.580;2022-11-20T05:47:46;56.93;;;25.30;;
75261;SDS011;63859;51.064;4.580;2022-11-20T05:50:12;56.90;;;25.60;;
75261;SDS011;63859;51.064;4.580;2022-11-20T05:52:39;57.57;;;27.97;;
75261;SDS011;63859;51.064;4.580;2022-11-20T05:55:05;53.83;;;25.03;;
75261;SDS011;63859;51.064;4.580;2022-11-20T05:57:31;57.67;;;26.53;;
75261;SDS011;63859;51.064;4.580;2022-11-20T05:59:57;61.90;;;25.67;;
75261;SDS011;63859;51.064;4.580;2022-11-20T06:02:22;52.87;;;25.47;;
75261;SDS011;63859;51.064;4.580;2022-11-20T06:04:48;55.27;;;25.70;;
75261;SDS011;63859;51.064;4.580;2022-11-20T06:07:14;57.47;;;25.87;;
75261;SDS011;63859;51.064;4.580;2022-11-20T06:09:40;57.67;;;27.67;;
75261;SDS011;63859;51.064;4.580;2022-11-20T06:12:05;59.67;;;26.87;;
75261;SDS011;63859;51.064;4.580;2022-11-20T06:14:32;58.13;;;26.63;;
75261;SDS011;63859;51.064;4.580;2022-11-20T06:16:57;56.63;;;26.03;;
75261;SDS011;63859;51.064;4.580;2022-11-20T06:19:23;61.70;;;25.90;;
75261;SDS011;63859;51.064;4.580;2022-11-20T06:21:49;59.27;;;26.63;;
75261;SDS011;63859;51.064;4.580;2022-11-20T06:24:15;53.83;;;25.00;;
75261;SDS011;63859;51.064;4.580;2022-11-20T06:26:41;58.47;;;25.80;;
75261;SDS011;63859;51.064;4.580;2022-11-20T06:29:06;55.83;;;25.20;;
75261;SDS011;63859;51.064;4.580;2022-11-20T06:31:32;62.80;;;27.20;;
75261;SDS011;63859;51.064;4.580;2022-11-20T06:34:00;60.50;;;26.00;;
75261;SDS011;63859;51.064;4.580;2022-11-20T06:36:26;59.13;;;25.43;;
75261;SDS011;63859;51.064;4.580;2022-11-20T06:38:52;56.67;;;26.20;;
75261;SDS011;63859;51.064;4.580;2022-11-20T06:41:19;61.73;;;26.33;;
75261;SDS011;63859;51.064;4.580;2022-11-20T06:43:45;54.87;;;26.03;;
75261;SDS011;63859;51.064;4.580;2022-11-20T06:46:12;57.27;;;26.27;;
75261;SDS011;63859;51.064;4.580;2022-11-20T06:48:39;63.00;;;27.20;;
75261;SDS011;63859;51.064;4.580;2022-11-20T06:51:06;60.77;;;27.03;;
75261;SDS011;63859;51.064;4.580;2022-11-20T06:53:33;62.83;;;27.63;;
75261;SDS011;63859;51.064;4.580;2022-11-20T06:55:58;56.20;;;25.60;;
75261;SDS011;63859;51.064;4.580;2022-11-20T06:58:26;62.30;;;26.57;;
75261;SDS011;63859;51.064;4.580;2022-11-20T07:00:53;59.10;;;27.33;;
75261;SDS011;63859;51.064;4.580;2022-11-20T07:03:18;60.33;;;25.90;;
75261;SDS011;63859;51.064;4.580;2022-11-20T07:05:44;70.33;;;27.87;;
75261;SDS011;63859;51.064;4.580;2022-11-20T07:08:10;59.00;;;27.07;;
75261;SDS011;63859;51.064;4.580;2022-11-20T07:10:37;64.13;;;27.47;;
75261;SDS011;63859;51.064;4.580;2022-11-20T07:13:02;63.73;;;28.40;;
75261;SDS011;63859;51.064;4.580;2022-11-20T07:15:28;66.23;;;28.07;;
75261;SDS011;63859;51.064;4.580;2022-11-20T07:17:54;65.13;;;28.07;;
75261;SDS011;63859;51.064;4.580;2022-11-20T07:20:23;64.00;;;28.40;;
75261;SDS011;63859;51.064;4.580;2022-11-20T07:22:53;63.93;;;28.63;;
75261;SDS011;63859;51.064;4.580;2022-11-20T07:25:22;69.63;;;28.47;;
75261;SDS011;63859;51.064;4.580;2022-11-20T07:27:51;69.93;;;28.63;;
75261;SDS011;63859;51.064;4.580;2022-11-20T07:30:17;65.50;;;28.57;;
75261;SDS011;63859;51.064;4.580;2022-11-20T07:32:46;74.17;;;29.00;;
75261;SDS011;63859;51.064;4.580;2022-11-20T07:35:15;69.23;;;28.13;;
75261;SDS011;63859;51.064;4.580;2022-11-20T07:37:41;63.50;;;28.07;;
75261;SDS011;63859;51.064;4.580;2022-11-20T07:40:06;71.90;;;29.33;;
75261;SDS011;63859;51.064;4.580;2022-11-20T07:42:32;69.77;;;28.53;;
75261;SDS011;63859;51.064;4.580;2022-11-20T07:44:58;74.80;;;28.60;;
75261;SDS011;63859;51.064;4.580;2022-11-20T07:47:23;63.27;;;28.17;;
75261;SDS011;63859;51.064;4.580;2022-11-20T07:49:49;72.80;;;27.90;;
75261;SDS011;63859;51.064;4.580;2022-11-20T07:52:15;72.43;;;29.13;;
75261;SDS011;63859;51.064;4.580;2022-11-20T07:54:41;71.33;;;28.80;;
75261;SDS011;63859;51.064;4.580;2022-11-20T07:57:06;65.37;;;28.63;;
75261;SDS011;63859;51.064;4.580;2022-11-20T07:59:32;65.27;;;29.60;;
75261;SDS011;63859;51.064;4.580;2022-11-20T08:01:57;69.23;;;29.50;;
75261;SDS011;63859;51.064;4.580;2022-11-20T08:04:23;68.43;;;28.13;;
75261;SDS011;63859;51.064;4.580;2022-11-20T08:06:49;69.33;;;29.20;;
75261;SDS011;63859;51.064;4.580;2022-11-20T08:09:14;76.60;;;29.73;;
75261;SDS011;63859;51.064;4.580;2022-11-20T08:11:40;67.90;;;27.50;;
75261;SDS011;63859;51.064;4.580;2022-11-20T08:14:24;72.83;;;28.43;;
75261;SDS011;63859;51.064;4.580;2022-11-20T08:16:51;76.83;;;28.60;;
75261;SDS011;63859;51.064;4.580;2022-11-20T08:19:17;73.40;;;28.83;;
75261;SDS011;63859;51.064;4.580;2022-11-20T08:21:43;73.43;;;29.30;;
75261;SDS011;63859;51.064;4.580;2022-11-20T08:24:09;67.70;;;28.43;;
75261;SDS011;63859;51.064;4.580;2022-11-20T08:26:36;75.57;;;30.57;;
75261;SDS011;63859;51.064;4.580;2022-11-20T08:29:03;69.20;;;28.57;;
75261;SDS011;63859;51.064;4.580;2022-11-20T08:31:29;71.47;;;29.97;;
75261;SDS011;63859;51.064;4.580;2022-11-20T08:33:55;76.40;;;30.13;;
75261;SDS011;63859;51.064;4.580;2022-11-20T08:36:21;68.83;;;27.90;;
75261;SDS011;63859;51.064;4.580;2022-11-20T08:38:48;74.47;;;29.40;;
75261;SDS011;63859;51.064;4.580;2022-11-20T08:41:18;81.50;;;29.60;;
75261;SDS011;63859;51.064;4.580;2022-11-20T08:43:57;78.87;;;29.17;;
75261;SDS011;63859;51.064;4.580;2022-11-20T08:46:35;78.10;;;28.97;;
75261;SDS011;63859;51.064;4.580;2022-11-20T08:49:07;79.80;;;28.33;;
75261;SDS011;63859;51.064;4.580;2022-11-20T08:51:34;85.47;;;30.20;;
75261;SDS011;63859;51.064;4.580;2022-11-20T08:54:00;83.27;;;31.23;;
75261;SDS011;63859;51.064;4.580;2022-11-20T08:56:26;85.83;;;30.43;;
75261;SDS011;63859;51.064;4.580;2022-11-20T08:58:52;84.60;;;30.13;;
75261;SDS011;63859;51.064;4.580;2022-11-20T09:01:18;86.23;;;31.00;;
75261;SDS011;63859;51.064;4.580;2022-11-20T09:03:45;95.93;;;31.93;;
75261;SDS011;63859;51.064;4.580;2022-11-20T09:06:10;89.03;;;31.07;;
75261;SDS011;63859;51.064;4.580;2022-11-20T09:08:36;84.60;;;30.53;;
75261;SDS011;63859;51.064;4.580;2022-11-20T09:11:02;89.30;;;31.40;;
75261;SDS011;63859;51.064;4.580;2022-11-20T09:13:29;89.80;;;30.80;;
75261;SDS011;63859;51.064;4.580;2022-11-20T09:15:56;92.43;;;30.53;;
75261;SDS011;63859;51.064;4.580;2022-11-20T09:18:27;85.67;;;29.77;;
75261;SDS011;63859;51.064;4.580;2022-11-20T09:20:59;81.33;;;29.33;;
75261;SDS011;63859;51.064;4.580;2022-11-20T09:23:27;92.97;;;30.97;;
75261;SDS011;63859;51.064;4.580;2022-11-20T09:25:57;90.57;;;30.77;;
75261;SDS011;63859;51.064;4.580;2022-11-20T09:28:25;87.67;;;29.97;;
75261;SDS011;63859;51.064;4.580;2022-11-20T09:30:51;102.13;;;32.60;;
75261;SDS011;63859;51.064;4.580;2022-11-20T09:33:17;96.53;;;31.70;;
75261;SDS011;63859;51.064;4.580;2022-11-20T09:35:43;104.53;;;32.13;;
75261;SDS011;63859;51.064;4.580;2022-11-20T09:38:09;90.93;;;31.67;;
75261;SDS011;63859;51.064;4.580;2022-11-20T09:40:36;102.80;;;32.83;;
75261;SDS011;63859;51.064;4.580;2022-11-20T09:43:16;99.37;;;33.03;;
75261;SDS011;63859;51.064;4.580;2022-11-20T09:48:33;95.07;;;31.67;;
75261;SDS011;63859;51.064;4.580;2022-11-20T09:56:42;107.13;;;33.07;;
75261;SDS011;63859;51.064;4.580;2022-11-20T10:01:56;109.27;;;34.00;;
75261;SDS011;63859;51.064;4.580;2022-11-20T10:04:23;112.13;;;32.23;;
75261;SDS011;63859;51.064;4.580;2022-11-20T10:10:17;101.97;;;32.03;;
75261;SDS011;63859;51.064;4.580;2022-11-20T10:12:58;109.07;;;33.97;;
75261;SDS011;63859;51.064;4.580;2022-11-20T10:23:45;117.03;;;33.13;;
75261;SDS011;63859;51.064;4.580;2022-11-20T10:26:26;115.30;;;33.17;;
75261;SDS011;63859;51.064;4.580;2022-11-20T10:29:17;116.23;;;32.37;;
75261;SDS011;63859;51.064;4.580;2022-11-20T10:31:48;121.43;;;33.53;;
75261;SDS011;63859;51.064;4.580;2022-11-20T10:34:29;112.37;;;31.50;;
75261;SDS011;63859;51.064;4.580;2022-11-20T10:37:32;116.50;;;32.30;;
75261;SDS011;63859;51.064;4.580;2022-11-20T10:40:03;114.60;;;32.07;;
75261;SDS011;63859;51.064;4.580;2022-11-20T10:42:49;115.50;;;33.33;;
75261;SDS011;63859;51.064;4.580;2022-11-20T10:50:35;117.97;;;32.97;;
75261;SDS011;63859;51.064;4.580;2022-11-20T10:53:08;107.83;;;32.03;;
75261;SDS011;63859;51.064;4.580;2022-11-20T10:55:46;99.50;;;29.83;;
75261;SDS011;63859;51.064;4.580;2022-11-20T11:01:17;99.53;;;30.47;;
75261;SDS011;63859;51.064;4.580;2022-11-20T11:03:46;100.63;;;31.53;;
75261;SDS011;63859;51.064;4.580;2022-11-20T11:06:17;92.10;;;30.87;;
75261;SDS011;63859;51.064;4.580;2022-11-20T11:08:46;97.53;;;31.83;;
75261;SDS011;63859;51.064;4.580;2022-11-20T11:11:24;86.10;;;29.33;;
75261;SDS011;63859;51.064;4.580;2022-11-20T11:13:53;91.37;;;28.37;;
75261;SDS011;63859;51.064;4.580;2022-11-20T11:16:52;91.07;;;28.70;;
75261;SDS011;63859;51.064;4.580;2022-11-20T11:19:19;94.10;;;28.77;;
75261;SDS011;63859;51.064;4.580;2022-11-20T11:21:52;81.63;;;28.20;;
75261;SDS011;63859;51.064;4.580;2022-11-20T11:24:26;77.60;;;27.30;;
75261;SDS011;63859;51.064;4.580;2022-11-20T11:27:00;80.57;;;26.47;;
75261;SDS011;63859;51.064;4.580;2022-11-20T11:29:31;78.33;;;25.87;;
75261;SDS011;63859;51.064;4.580;2022-11-20T11:32:05;81.67;;;26.40;;
75261;SDS011;63859;51.064;4.580;2022-11-20T11:34:33;61.13;;;25.17;;
75261;SDS011;63859;51.064;4.580;2022-11-20T11:36:59;63.63;;;25.37;;
75261;SDS011;63859;51.064;4.580;2022-11-20T11:39:28;63.33;;;24.97;;
75261;SDS011;63859;51.064;4.580;2022-11-20T11:41:55;66.30;;;24.03;;
75261;SDS011;63859;51.064;4.580;2022-11-20T11:44:27;70.60;;;26.33;;
75261;SDS011;63859;51.064;4.580;2022-11-20T11:47:21;63.53;;;22.87;;
75261;SDS011;63859;51.064;4.580;2022-11-20T11:50:00;62.43;;;21.60;;
75261;SDS011;63859;51.064;4.580;2022-11-20T11:52:41;57.60;;;21.90;;
75261;SDS011;63859;51.064;4.580;2022-11-20T11:55:35;64.37;;;22.73;;
75261;SDS011;63859;51.064;4.580;2022-11-20T11:58:28;63.77;;;22.03;;
75261;SDS011;63859;51.064;4.580;2022-11-20T12:01:07;56.67;;;21.80;;
75261;SDS011;63859;51.064;4.580;2022-11-20T12:03:52;57.33;;;21.13;;
75261;SDS011;63859;51.064;4.580;2022-11-20T12:06:26;55.13;;;20.33;;
75261;SDS011;63859;51.064;4.580;2022-11-20T12:08:57;53.33;;;19.40;;
75261;SDS011;63859;51.064;4.580;2022-11-20T12:17:01;41.33;;;16.67;;
75261;SDS011;63859;51.064;4.580;2022-11-20T12:19:29;43.23;;;16.03;;
75261;SDS011;63859;51.064;4.580;2022-11-20T12:24:52;32.53;;;12.37;;
75261;SDS011;63859;51.064;4.580;2022-11-20T12:30:12;18.23;;;7.53;;
75261;SDS011;63859;51.064;4.580;2022-11-20T12:50:13;12.93;;;4.03;;
75261;SDS011;63859;51.064;4.580;2022-11-20T12:52:55;9.53;;;3.90;;
75261;SDS011;63859;51.064;4.580;2022-11-20T12:55:31;10.90;;;4.27;;
75261;SDS011;63859;51.064;4.580;2022-11-20T13:03:55;13.07;;;4.57;;
75261;SDS011;63859;51.064;4.580;2022-11-20T13:06:25;9.90;;;4.13;;
75261;SDS011;63859;51.064;4.580;2022-11-20T13:08:55;11.60;;;5.13;;
75261;SDS011;63859;51.064;4.580;2022-11-20T13:14:10;8.40;;;3.93;;
75261;SDS011;63859;51.064;4.580;2022-11-20T13:19:33;10.00;;;4.53;;
75261;SDS011;63859;51.064;4.580;2022-11-20T13:22:00;8.20;;;4.00;;
75261;SDS011;63859;51.064;4.580;2022-11-20T13:24:27;11.37;;;5.20;;
75261;SDS011;63859;51.064;4.580;2022-11-20T13:29:33;10.97;;;4.70;;
75261;SDS011;63859;51.064;4.580;2022-11-20T13:34:37;10.60;;;5.27;;
75261;SDS011;63859;51.064;4.580;2022-11-20T13:37:03;12.73;;;4.70;;
75261;SDS011;63859;51.064;4.580;2022-11-20T13:39:35;10.27;;;4.50;;
75261;SDS011;63859;51.064;4.580;2022-11-20T13:42:03;11.70;;;5.10;;
75261;SDS011;63859;51.064;4.580;2022-11-20T13:44:55;9.50;;;4.77;;
75261;SDS011;63859;51.064;4.580;2022-11-20T13:47:27;10.27;;;5.07;;
75261;SDS011;63859;51.064;4.580;2022-11-20T13:49:54;14.17;;;5.23;;
75261;SDS011;63859;51.064;4.580;2022-11-20T13:57:54;13.80;;;5.77;;
75261;SDS011;63859;51.064;4.580;2022-11-20T14:00:43;13.77;;;5.67;;
75261;SDS011;63859;51.064;4.580;2022-11-20T14:03:17;11.90;;;5.93;;
75261;SDS011;63859;51.064;4.580;2022-11-20T14:05:52;14.43;;;5.90;;
75261;SDS011;63859;51.064;4.580;2022-11-20T14:08:27;12.30;;;5.93;;
75261;SDS011;63859;51.064;4.580;2022-11-20T14:11:02;17.63;;;6.27;;
75261;SDS011;63859;51.064;4.580;2022-11-20T14:14:03;12.47;;;5.70;;
75261;SDS011;63859;51.064;4.580;2022-11-20T14:16:40;11.07;;;5.93;;
75261;SDS011;63859;51.064;4.580;2022-11-20T14:19:17;11.23;;;5.00;;
75261;SDS011;63859;51.064;4.580;2022-11-20T14:21:47;12.43;;;5.70;;
75261;SDS011;63859;51.064;4.580;2022-11-20T14:24:33;14.47;;;5.90;;
75261;SDS011;63859;51.064;4.580;2022-11-20T14:26:59;9.23;;;5.80;;
75261;SDS011;63859;51.064;4.580;2022-11-20T14:29:34;12.10;;;5.30;;
75261;SDS011;63859;51.064;4.580;2022-11-20T14:32:02;12.53;;;5.43;;
75261;SDS011;63859;51.064;4.580;2022-11-20T14:34:30;8.37;;;6.10;;
75261;SDS011;63859;51.064;4.580;2022-11-20T14:37:02;11.00;;;4.90;;
75261;SDS011;63859;51.064;4.580;2022-11-20T14:39:34;10.77;;;5.10;;
75261;SDS011;63859;51.064;4.580;2022-11-20T14:42:01;8.97;;;5.43;;
75261;SDS011;63859;51.064;4.580;2022-11-20T14:44:39;7.83;;;5.43;;
75261;SDS011;63859;51.064;4.580;2022-11-20T14:47:05;10.77;;;5.50;;
75261;SDS011;63859;51.064;4.580;2022-11-20T14:49:35;8.60;;;4.50;;
75261;SDS011;63859;51.064;4.580;2022-11-20T14:52:09;6.40;;;4.17;;
75261;SDS011;63859;51.064;4.580;2022-11-20T14:54:58;6.17;;;4.57;;
75261;SDS011;63859;51.064;4.580;2022-11-20T14:57:30;8.03;;;4.30;;
75261;SDS011;63859;51.064;4.580;2022-11-20T15:02:40;8.83;;;4.87;;
75261;SDS011;63859;51.064;4.580;2022-11-20T15:05:07;8.20;;;5.30;;
75261;SDS011;63859;51.064;4.580;2022-11-20T15:07:34;7.80;;;4.93;;
75261;SDS011;63859;51.064;4.580;2022-11-20T15:10:05;9.07;;;5.43;;
75261;SDS011;63859;51.064;4.580;2022-11-20T15:12:37;9.17;;;5.07;;
75261;SDS011;63859;51.064;4.580;2022-11-20T15:15:10;7.23;;;4.80;;
75261;SDS011;63859;51.064;4.580;2022-11-20T15:17:39;12.00;;;6.00;;
75261;SDS011;63859;51.064;4.580;2022-11-20T15:20:09;10.27;;;5.80;;
75261;SDS011;63859;51.064;4.580;2022-11-20T15:22:39;6.70;;;5.57;;
75261;SDS011;63859;51.064;4.580;2022-11-20T15:25:11;11.27;;;5.07;;
75261;SDS011;63859;51.064;4.580;2022-11-20T15:27:38;9.40;;;5.67;;
75261;SDS011;63859;51.064;4.580;2022-11-20T15:30:14;7.27;;;5.60;;
75261;SDS011;63859;51.064;4.580;2022-11-20T15:32:41;7.73;;;5.97;;
75261;SDS011;63859;51.064;4.580;2022-11-20T15:35:08;9.10;;;6.40;;
75261;SDS011;63859;51.064;4.580;2022-11-20T15:37:34;8.60;;;5.40;;
75261;SDS011;63859;51.064;4.580;2022-11-20T15:40:00;9.30;;;5.93;;
75261;SDS011;63859;51.064;4.580;2022-11-20T15:42:26;9.27;;;6.00;;
75261;SDS011;63859;51.064;4.580;2022-11-20T15:44:52;10.33;;;6.50;;
75261;SDS011;63859;51.064;4.580;2022-11-20T15:47:17;10.97;;;6.33;;
75261;SDS011;63859;51.064;4.580;2022-11-20T15:49:46;12.03;;;6.47;;
75261;SDS011;63859;51.064;4.580;2022-11-20T15:52:11;13.57;;;5.93;;
75261;SDS011;63859;51.064;4.580;2022-11-20T15:54:38;8.40;;;6.50;;
75261;SDS011;63859;51.064;4.580;2022-11-20T15:57:03;8.23;;;6.10;;
75261;SDS011;63859;51.064;4.580;2022-11-20T15:59:29;10.17;;;6.20;;
75261;SDS011;63859;51.064;4.580;2022-11-20T16:01:54;14.00;;;6.40;;
75261;SDS011;63859;51.064;4.580;2022-11-20T16:04:20;10.90;;;5.90;;